Time;durP1;ratioP1;P1;durP2;ratioP2;P2;SDS_P1;SDS_P2;PMS_P1;PMS_P2;Temp;Humidity;BMP_temperature;BMP_pressure;BME280_temperature;BME280_humidity;BME280_pressure;Samples;Min_cycle;Max_cycle;Signal;HPM_P1;HPM_P2
2022/01/23 00:01:27;;;;;;;4.13;1.75;;;5.90;91.40;;;;;;5034620;28;20083;-43
2022/01/23 00:03:54;;;;;;;8.50;2.90;;;5.80;91.30;;;;;;5035516;28;20044;-45
2022/01/23 00:06:21;;;;;;;5.93;2.47;;;5.80;91.30;;;;;;5035183;28;20044;-45
2022/01/23 00:08:48;;;;;;;7.18;1.80;;;5.90;91.30;;;;;;5035029;28;20060;-44
2022/01/23 00:11:21;;;;;;;7.70;1.90;;;5.80;91.20;;;;;;5035402;28;20060;-43
2022/01/23 00:19:12;;;;;;;9.48;3.80;;;5.80;91.20;;;;;;5034872;28;20037;-45
2022/01/23 00:21:45;;;;;;;8.05;4.03;;;5.80;91.20;;;;;;5035004;28;20079;-43
2022/01/23 00:32:07;;;;;;;7.97;3.50;;;5.60;90.90;;;;;;5035139;28;20068;-44
2022/01/23 00:34:35;;;;;;;8.00;4.20;;;5.50;91.00;;;;;;5034045;28;20022;-44
2022/01/23 00:37:02;;;;;;;10.18;5.10;;;5.50;91.10;;;;;;5034637;28;20064;-43
2022/01/23 00:39:29;;;;;;;8.35;4.45;;;5.60;91.20;;;;;;5034522;28;20109;-43
2022/01/23 00:41:55;;;;;;;7.65;4.57;;;5.60;91.20;;;;;;5034552;28;20042;-43
2022/01/23 00:44:22;;;;;;;8.60;4.53;;;5.60;91.20;;;;;;5033983;28;20115;-43
2022/01/23 00:46:52;;;;;;;7.72;4.30;;;5.70;91.30;;;;;;5034112;28;20033;-44
2022/01/23 00:49:25;;;;;;;8.35;4.68;;;5.70;91.20;;;;;;5035783;28;20053;-43
2022/01/23 00:51:54;;;;;;;8.27;3.75;;;5.70;91.20;;;;;;5017937;28;20029;-43
2022/01/23 00:54:21;;;;;;;;;;;5.70;91.20;;;;;;5033569;28;20043;-43
2022/01/23 00:56:49;;;;;;;7.85;4.03;;;5.70;91.20;;;;;;5033300;28;19962;-43
2022/01/23 00:59:15;;;;;;;5.20;3.78;;;5.70;91.30;;;;;;5014032;28;20109;-43
2022/01/23 01:01:42;;;;;;;9.50;4.38;;;5.80;91.30;;;;;;5046968;28;20084;-45
2022/01/23 01:04:08;;;;;;;7.13;3.78;;;5.70;91.20;;;;;;5032903;28;20021;-43
2022/01/23 01:06:35;;;;;;;8.52;3.80;;;5.70;91.20;;;;;;5033532;28;20032;-43
2022/01/23 01:09:07;;;;;;;6.85;3.88;;;5.80;91.30;;;;;;5043729;28;20037;-44
2022/01/23 01:30:34;;;;;;;9.82;3.60;;;5.90;91.30;;;;;;5033398;28;20641;-43
2022/01/23 01:33:20;;;;;;;5.30;3.40;;;5.90;91.30;;;;;;5032989;28;20432;-43
2022/01/23 01:35:55;;;;;;;6.65;3.78;;;5.90;91.20;;;;;;5033745;28;20029;-44
2022/01/23 01:38:21;;;;;;;10.35;4.10;;;5.80;91.10;;;;;;5017450;28;20044;-43
2022/01/23 01:40:48;;;;;;;8.98;3.70;;;5.90;91.20;;;;;;5033543;28;20025;-43
2022/01/23 01:43:14;;;;;;;7.47;3.63;;;5.90;91.20;;;;;;5032282;28;20052;-43
2022/01/23 01:45:42;;;;;;;8.48;4.47;;;5.90;91.20;;;;;;5033462;28;20454;-43
2022/01/23 01:48:10;;;;;;;8.18;3.38;;;5.90;91.20;;;;;;5033618;28;20056;-43
2022/01/23 01:50:43;;;;;;;7.72;3.50;;;5.90;91.20;;;;;;5033367;28;20103;-43
2022/01/23 01:53:11;;;;;;;6.82;2.85;;;5.90;91.20;;;;;;5033746;28;20045;-43
2022/01/23 01:55:42;;;;;;;7.10;3.65;;;5.90;91.20;;;;;;5045143;28;20033;-43
2022/01/23 01:59:13;;;;;;;6.60;3.13;;;5.90;91.20;;;;;;5033417;28;20033;-44
2022/01/23 02:01:12;;;;;;;6.22;3.00;;;5.90;91.20;;;;;;5027674;28;20037;-43
2022/01/23 02:09:18;;;;;;;4.95;3.05;;;5.90;91.10;;;;;;5016846;28;20087;-43
2022/01/23 02:14:56;;;;;;;5.22;2.47;;;5.90;91.10;;;;;;5037456;28;20129;-43
2022/01/23 02:17:53;;;;;;;7.10;2.50;;;5.90;91.20;;;;;;5037020;28;20043;-44
2022/01/23 02:50:37;;;;;;;7.70;2.38;;;5.90;91.10;;;;;;5037267;28;20035;-43
2022/01/23 02:50:47;;;;;;;2.80;1.45;;;5.90;91.00;;;;;;5035884;28;20049;-45
2022/01/23 02:53:34;;;;;;;4.80;1.83;;;5.90;91.10;;;;;;5036542;28;20029;-48
2022/01/23 02:56:03;;;;;;;4.72;1.40;;;5.90;91.10;;;;;;5036494;28;20061;-44
2022/01/23 02:58:36;;;;;;;4.90;1.35;;;6.00;91.20;;;;;;5036086;28;20754;-44
2022/01/23 03:01:16;;;;;;;9.93;1.92;;;6.00;91.10;;;;;;5017946;28;20038;-46
2022/01/23 03:03:46;;;;;;;3.72;1.70;;;6.00;91.10;;;;;;5035980;28;20029;-48
2022/01/23 03:06:35;;;;;;;7.07;1.40;;;6.00;91.10;;;;;;5035477;28;20025;-45
2022/01/23 03:25:42;;;;;;;4.93;1.58;;;6.10;91.20;;;;;;5036196;28;20059;-44
2022/01/23 03:30:50;;;;;;;3.95;1.33;;;6.00;91.20;;;;;;5035556;28;20048;-47
2022/01/23 03:33:16;;;;;;;5.80;1.73;;;6.00;91.20;;;;;;5035873;28;20446;-44
2022/01/23 03:35:42;;;;;;;3.35;1.48;;;6.10;91.30;;;;;;5034788;28;20117;-44
2022/01/23 03:38:12;;;;;;;6.95;1.80;;;6.10;91.20;;;;;;5035828;28;20034;-44
2022/01/23 03:40:45;;;;;;;8.68;2.05;;;6.00;91.20;;;;;;5035712;28;20428;-44
2022/01/23 03:43:14;;;;;;;3.38;1.60;;;6.00;91.30;;;;;;5035817;28;20037;-45
2022/01/23 03:50:39;;;;;;;5.13;1.88;;;6.00;91.60;;;;;;5035837;28;20048;-46
2022/01/23 03:53:05;;;;;;;7.82;1.88;;;6.00;91.50;;;;;;5051025;28;20179;-47
2022/01/23 03:55:32;;;;;;;3.97;1.58;;;6.00;91.50;;;;;;5035737;28;20436;-46
2022/01/23 03:58:00;;;;;;;5.72;2.00;;;5.90;91.50;;;;;;5035139;28;20114;-46
2022/01/23 04:00:27;;;;;;;6.90;1.75;;;5.90;91.50;;;;;;5033525;28;20025;-46
2022/01/23 04:02:53;;;;;;;5.30;1.77;;;5.90;91.50;;;;;;5035052;28;20079;-46
2022/01/23 04:05:19;;;;;;;4.40;2.22;;;5.90;91.60;;;;;;5035433;28;20113;-45
2022/01/23 04:07:46;;;;;;;4.68;2.08;;;5.90;91.70;;;;;;5034923;28;20168;-46
2022/01/23 04:10:16;;;;;;;5.53;1.83;;;6.00;91.70;;;;;;5033902;28;20084;-43
2022/01/23 04:15:35;;;;;;;4.40;2.05;;;5.90;91.70;;;;;;5034626;28;20048;-47
2022/01/23 05:01:51;;;;;;;6.07;2.22;;;6.10;91.90;;;;;;5034423;28;20037;-47
2022/01/23 05:04:30;;;;;;;5.97;2.63;;;6.00;91.80;;;;;;5033555;28;20109;-48
2022/01/23 05:09:26;;;;;;;7.63;2.67;;;6.00;91.90;;;;;;5033095;28;20422;-49
2022/01/23 05:11:57;;;;;;;4.40;2.35;;;6.10;91.90;;;;;;5029760;28;20056;-44
2022/01/23 05:14:33;;;;;;;4.70;2.33;;;6.10;91.90;;;;;;5032315;28;20087;-44
2022/01/23 05:16:59;;;;;;;7.00;3.70;;;6.10;91.80;;;;;;5033581;28;20087;-44
2022/01/23 05:19:27;;;;;;;15.27;3.25;;;6.00;91.70;;;;;;5032902;28;20036;-46
2022/01/23 05:24:46;;;;;;;10.98;3.78;;;6.00;91.80;;;;;;5033080;28;20029;-46
2022/01/23 05:27:13;;;;;;;5.57;2.78;;;6.10;91.80;;;;;;5033590;28;20017;-46
2022/01/23 05:29:39;;;;;;;6.65;2.75;;;6.10;91.80;;;;;;5032951;28;20529;-47
2022/01/23 05:32:09;;;;;;;9.80;3.05;;;6.10;91.70;;;;;;5033190;28;20061;-47
2022/01/23 05:34:36;;;;;;;;;;;6.00;91.60;;;;;;5031079;28;20473;-47
2022/01/23 05:37:03;;;;;;;5.57;2.50;;;6.00;91.70;;;;;;5032655;28;19909;-44
2022/01/23 05:39:33;;;;;;;6.57;2.42;;;5.90;91.80;;;;;;5032602;28;20040;-47
2022/01/23 05:42:07;;;;;;;9.27;3.53;;;5.90;91.90;;;;;;5033758;28;20025;-43
2022/01/23 05:44:35;;;;;;;12.90;2.90;;;5.90;91.80;;;;;;5033151;28;20049;-46
2022/01/23 05:47:02;;;;;;;8.70;3.15;;;6.00;91.90;;;;;;5032361;28;20025;-50
2022/01/23 05:49:32;;;;;;;5.43;2.40;;;6.00;91.90;;;;;;5032435;28;20021;-47
2022/01/23 05:51:58;;;;;;;7.30;2.70;;;6.00;91.90;;;;;;5032662;28;20370;-48
2022/01/23 05:54:26;;;;;;;7.22;2.70;;;6.00;91.90;;;;;;5047169;28;20443;-45
2022/01/23 05:56:56;;;;;;;8.40;2.28;;;6.10;91.90;;;;;;5032457;28;20029;-44
2022/01/23 05:59:23;;;;;;;5.70;2.45;;;6.10;91.90;;;;;;5032142;28;20427;-47
2022/01/23 06:01:55;;;;;;;6.50;3.03;;;6.10;91.70;;;;;;5033054;28;20061;-43
2022/01/23 06:04:24;;;;;;;5.93;3.28;;;6.10;91.80;;;;;;5032927;28;20021;-48
2022/01/23 06:06:53;;;;;;;6.50;3.30;;;6.10;91.70;;;;;;5032056;28;20025;-45
2022/01/23 06:09:21;;;;;;;8.82;3.30;;;6.10;91.80;;;;;;5032520;28;20034;-46
2022/01/23 06:11:48;;;;;;;4.60;2.67;;;6.10;91.80;;;;;;5033295;28;20096;-44
2022/01/23 06:14:15;;;;;;;12.98;3.67;;;6.00;91.80;;;;;;5033020;28;20099;-46
2022/01/23 06:16:42;;;;;;;14.40;2.83;;;6.10;91.90;;;;;;5033385;28;20450;-43
2022/01/23 06:19:09;;;;;;;6.93;2.70;;;6.20;91.80;;;;;;5031764;28;20026;-45
2022/01/23 06:21:36;;;;;;;8.80;2.72;;;6.20;91.80;;;;;;5033477;28;20052;-44
2022/01/23 06:24:14;;;;;;;4.30;2.13;;;6.20;91.70;;;;;;5032940;28;20037;-47
2022/01/23 06:26:47;;;;;;;5.95;2.17;;;6.20;91.80;;;;;;5033217;28;20040;-46
2022/01/23 06:29:16;;;;;;;6.22;2.05;;;6.20;91.80;;;;;;5032776;28;20033;-44
2022/01/23 06:31:47;;;;;;;5.90;1.98;;;6.20;91.80;;;;;;5031730;28;20034;-47
2022/01/23 06:34:17;;;;;;;7.22;2.42;;;6.20;91.70;;;;;;5032894;28;20031;-45
2022/01/23 06:36:45;;;;;;;5.88;2.00;;;6.20;91.70;;;;;;5032985;28;20025;-45
2022/01/23 06:39:13;;;;;;;5.90;2.78;;;6.30;91.70;;;;;;5033020;28;20025;-43
2022/01/23 06:41:40;;;;;;;5.43;1.88;;;6.20;91.60;;;;;;5032821;28;20447;-45
2022/01/23 06:44:06;;;;;;;5.90;2.00;;;6.30;91.60;;;;;;5032590;28;20049;-43
2022/01/23 06:46:33;;;;;;;8.45;2.65;;;6.30;91.60;;;;;;5033102;28;20332;-44
2022/01/23 06:49:01;;;;;;;5.57;1.95;;;6.30;91.50;;;;;;5048019;28;20034;-46
2022/01/23 06:51:27;;;;;;;5.45;2.15;;;6.30;91.50;;;;;;5031886;28;20383;-44
2022/01/23 06:53:54;;;;;;;7.15;2.10;;;6.30;91.50;;;;;;5032365;28;20025;-43
2022/01/23 06:56:21;;;;;;;7.15;1.90;;;6.20;91.50;;;;;;5031485;28;20037;-43
2022/01/23 06:58:50;;;;;;;7.38;2.42;;;6.20;91.50;;;;;;5033784;28;20045;-44
2022/01/23 07:01:17;;;;;;;4.82;2.15;;;6.20;91.50;;;;;;5036260;28;20056;-45
2022/01/23 07:03:43;;;;;;;5.20;1.88;;;6.20;91.50;;;;;;5035698;28;20034;-43
2022/01/23 07:06:10;;;;;;;4.78;1.70;;;6.20;91.50;;;;;;5035748;28;20112;-44
2022/01/23 07:08:37;;;;;;;5.40;1.73;;;6.20;91.60;;;;;;5035910;28;20029;-46
2022/01/23 07:11:04;;;;;;;4.57;2.08;;;6.20;91.60;;;;;;5035788;28;20030;-43
2022/01/23 07:13:31;;;;;;;8.80;2.10;;;6.20;91.50;;;;;;5035902;28;20037;-44
2022/01/23 07:15:58;;;;;;;7.53;2.00;;;6.20;91.50;;;;;;5034497;28;20033;-46
2022/01/23 07:18:24;;;;;;;5.45;1.92;;;6.20;91.50;;;;;;5012325;28;20033;-43
2022/01/23 07:20:51;;;;;;;4.38;2.00;;;6.30;91.50;;;;;;5034540;28;20083;-44
2022/01/23 07:23:21;;;;;;;7.60;2.17;;;6.30;91.50;;;;;;5034815;28;20044;-43
2022/01/23 07:25:47;;;;;;;7.78;2.45;;;6.30;91.40;;;;;;5035111;28;20044;-44
2022/01/23 07:28:21;;;;;;;8.60;2.28;;;6.30;91.40;;;;;;5035237;28;20022;-48
2022/01/23 07:30:52;;;;;;;6.00;3.38;;;6.30;91.40;;;;;;5035413;28;20030;-43
2022/01/23 07:33:19;;;;;;;4.70;2.53;;;6.30;91.40;;;;;;5035395;28;20481;-44
2022/01/23 07:35:47;;;;;;;6.00;2.97;;;6.30;91.40;;;;;;5035021;28;20033;-43
2022/01/23 07:38:17;;;;;;;9.98;3.00;;;6.30;91.30;;;;;;5035286;28;20041;-45
2022/01/23 07:40:50;;;;;;;8.98;3.85;;;6.40;91.30;;;;;;5047929;28;20393;-45
2022/01/23 07:43:16;;;;;;;6.00;3.15;;;6.30;91.30;;;;;;5035509;28;20018;-44
2022/01/23 07:45:43;;;;;;;9.73;3.40;;;6.30;91.30;;;;;;5034256;28;20533;-46
2022/01/23 07:48:10;;;;;;;8.80;3.15;;;6.30;91.20;;;;;;5035444;28;20324;-43
2022/01/23 07:50:40;;;;;;;8.30;3.13;;;6.30;91.20;;;;;;5035463;28;20029;-46
2022/01/23 07:53:06;;;;;;;8.23;3.28;;;6.40;91.20;;;;;;5035023;28;20569;-44
2022/01/23 07:55:33;;;;;;;6.53;3.50;;;6.40;91.20;;;;;;5034885;28;20029;-43
2022/01/23 07:58:05;;;;;;;5.68;2.88;;;6.40;91.10;;;;;;5034953;28;20404;-43
2022/01/23 08:00:33;;;;;;;7.40;3.08;;;6.40;91.10;;;;;;5034820;28;20024;-44
2022/01/23 08:03:00;;;;;;;8.63;3.60;;;6.40;91.10;;;;;;5035077;28;20017;-45
2022/01/23 08:05:27;;;;;;;6.25;2.55;;;6.40;91.00;;;;;;5034147;28;20030;-43
2022/01/23 08:07:53;;;;;;;6.20;3.40;;;6.40;91.00;;;;;;5033065;28;20040;-45
2022/01/23 08:10:20;;;;;;;4.70;3.15;;;6.50;90.90;;;;;;5034014;28;20029;-43
2022/01/23 08:12:47;;;;;;;7.57;3.75;;;6.50;90.90;;;;;;5034508;28;20079;-44
2022/01/23 08:15:15;;;;;;;7.28;3.22;;;6.50;90.90;;;;;;5034324;28;20029;-45
2022/01/23 08:17:44;;;;;;;6.55;3.90;;;6.50;90.90;;;;;;5034249;28;20033;-44
2022/01/23 08:20:11;;;;;;;4.40;2.65;;;6.50;90.80;;;;;;5034195;28;20029;-46
2022/01/23 08:22:38;;;;;;;6.20;2.92;;;6.50;90.80;;;;;;5034675;28;20343;-47
2022/01/23 08:25:05;;;;;;;7.05;2.70;;;6.50;90.60;;;;;;5032673;28;20029;-45
2022/01/23 08:27:32;;;;;;;5.68;2.90;;;6.50;90.60;;;;;;5032237;28;20100;-45
2022/01/23 08:29:59;;;;;;;7.63;2.58;;;6.60;90.60;;;;;;5034253;28;20025;-46
2022/01/23 08:32:26;;;;;;;9.10;2.83;;;6.60;90.60;;;;;;5034126;28;20098;-43
2022/01/23 08:34:53;;;;;;;7.88;2.05;;;6.60;90.60;;;;;;5031524;28;20039;-47
2022/01/23 08:37:24;;;;;;;7.47;2.90;;;6.60;90.60;;;;;;5033870;28;20052;-48
2022/01/23 08:39:51;;;;;;;5.60;2.17;;;6.70;90.60;;;;;;5033784;28;20041;-46
2022/01/23 08:42:18;;;;;;;5.75;1.83;;;6.70;90.40;;;;;;5033674;28;20455;-47
2022/01/23 08:44:47;;;;;;;6.88;1.90;;;6.60;90.40;;;;;;5033793;28;20471;-48
2022/01/23 08:47:14;;;;;;;5.50;2.25;;;6.60;90.50;;;;;;5034325;28;20447;-44
2022/01/23 08:49:46;;;;;;;6.57;2.20;;;6.70;90.50;;;;;;5034138;28;20047;-46
2022/01/23 08:52:16;;;;;;;5.47;1.90;;;6.70;90.50;;;;;;5034546;28;20390;-45
2022/01/23 08:54:49;;;;;;;3.90;1.90;;;6.70;90.50;;;;;;5034033;28;20037;-47
2022/01/23 08:57:17;;;;;;;6.18;2.10;;;6.90;90.60;;;;;;5034438;28;20017;-46
2022/01/23 08:59:45;;;;;;;5.13;2.10;;;6.90;90.60;;;;;;5033311;28;20033;-44
2022/01/23 09:02:12;;;;;;;3.45;1.77;;;7.10;90.40;;;;;;5033969;28;20061;-44
2022/01/23 09:04:39;;;;;;;6.15;2.47;;;7.10;89.80;;;;;;5033588;28;20048;-43
2022/01/23 09:07:05;;;;;;;6.75;2.35;;;7.20;89.70;;;;;;5034136;28;20113;-46
2022/01/23 09:09:37;;;;;;;3.42;1.90;;;7.20;89.50;;;;;;5033511;28;20112;-44
2022/01/23 09:12:43;;;;;;;5.82;1.80;;;7.20;89.50;;;;;;5033785;28;20080;-46
2022/01/23 09:14:55;;;;;;;3.60;1.55;;;7.20;89.50;;;;;;5033932;28;20037;-45
2022/01/23 09:17:22;;;;;;;4.43;2.17;;;7.30;89.40;;;;;;5033385;28;20037;-46
2022/01/23 09:19:49;;;;;;;3.92;1.90;;;7.30;89.30;;;;;;5033897;28;20379;-47
2022/01/23 09:22:16;;;;;;;5.93;1.92;;;7.40;89.20;;;;;;5033165;28;20061;-47
2022/01/23 09:24:43;;;;;;;4.57;2.50;;;7.40;89.10;;;;;;5033118;28;20025;-43
2022/01/23 09:27:18;;;;;;;4.93;1.98;;;7.40;89.20;;;;;;5033494;28;20427;-44
2022/01/23 09:29:49;;;;;;;6.13;2.70;;;7.40;88.90;;;;;;5031201;28;20041;-44
2022/01/23 09:32:20;;;;;;;8.27;3.30;;;7.40;88.80;;;;;;5031977;28;20039;-46
2022/01/23 09:34:48;;;;;;;7.03;3.10;;;7.40;88.60;;;;;;5032459;28;20100;-47
2022/01/23 09:37:17;;;;;;;4.95;1.67;;;7.40;88.50;;;;;;5026499;28;20033;-49
2022/01/23 09:39:49;;;;;;;11.13;2.67;;;7.40;88.60;;;;;;5028446;28;20040;-48
2022/01/23 09:42:50;;;;;;;3.65;1.52;;;7.40;88.70;;;;;;5027858;28;20067;-44
2022/01/23 09:45:18;;;;;;;5.40;1.80;;;7.40;88.70;;;;;;5033092;28;20124;-43
2022/01/23 09:47:45;;;;;;;3.60;1.33;;;7.50;88.50;;;;;;5032634;28;20481;-43
2022/01/23 09:50:14;;;;;;;4.85;1.63;;;7.50;88.30;;;;;;5032396;28;20040;-46
2022/01/23 09:52:42;;;;;;;6.53;2.60;;;7.50;88.50;;;;;;5033263;28;20335;-43
2022/01/23 09:55:12;;;;;;;3.58;1.58;;;7.60;88.20;;;;;;5032922;28;20036;-45
2022/01/23 09:57:42;;;;;;;;;;;7.70;88.40;;;;;;5033872;28;20025;-46
2022/01/23 10:00:15;;;;;;;4.30;2.13;;;7.70;88.20;;;;;;5033104;28;19913;-43
2022/01/23 10:02:46;;;;;;;5.75;2.65;;;7.70;88.10;;;;;;5033342;28;20065;-44
2022/01/23 10:05:14;;;;;;;5.90;2.63;;;7.80;88.20;;;;;;5032985;28;20041;-43
2022/01/23 10:07:42;;;;;;;6.30;2.20;;;7.90;88.10;;;;;;5022788;28;20379;-45
2022/01/23 10:10:19;;;;;;;4.38;2.35;;;7.90;87.90;;;;;;5025089;28;20025;-44
2022/01/23 10:12:54;;;;;;;6.45;2.88;;;7.90;87.90;;;;;;5022055;28;20026;-44
2022/01/23 10:15:27;;;;;;;9.93;5.80;;;7.90;87.70;;;;;;5019548;28;20124;-46
2022/01/23 10:17:55;;;;;;;6.68;3.15;;;7.90;87.90;;;;;;5016615;28;20029;-44
2022/01/23 10:20:23;;;;;;;8.43;2.55;;;7.90;87.70;;;;;;5021382;28;20049;-46
2022/01/23 10:22:51;;;;;;;4.90;2.13;;;8.00;87.70;;;;;;5024114;28;20109;-44
2022/01/23 10:25:21;;;;;;;5.57;2.00;;;7.90;87.60;;;;;;5027842;28;20375;-45
2022/01/23 10:28:02;;;;;;;5.60;2.15;;;8.00;87.60;;;;;;5024785;28;20105;-46
2022/01/23 10:30:32;;;;;;;5.35;2.03;;;8.10;87.40;;;;;;5026556;28;20441;-46
2022/01/23 10:33:08;;;;;;;6.32;2.10;;;8.10;87.50;;;;;;5013551;28;20474;-45
2022/01/23 10:35:50;;;;;;;5.75;2.30;;;8.20;87.20;;;;;;5027486;28;20113;-45
2022/01/23 10:38:19;;;;;;;5.22;2.05;;;8.30;87.20;;;;;;5028345;28;20095;-46
2022/01/23 10:41:02;;;;;;;6.95;2.35;;;8.40;87.20;;;;;;5029019;28;20099;-45
2022/01/23 10:49:00;;;;;;;6.40;2.10;;;8.40;86.80;;;;;;5033501;28;20048;-46
2022/01/23 10:51:36;;;;;;;4.07;1.80;;;8.50;86.70;;;;;;5036558;28;20447;-44
2022/01/23 10:54:16;;;;;;;3.17;1.58;;;8.60;86.60;;;;;;5034407;28;20037;-45
2022/01/23 10:57:01;;;;;;;5.53;1.77;;;8.50;86.30;;;;;;5035793;28;20032;-50
2022/01/23 10:59:49;;;;;;;3.20;1.50;;;8.60;86.50;;;;;;5036018;28;20037;-45
2022/01/23 11:02:21;;;;;;;4.88;2.22;;;8.60;86.40;;;;;;5035956;28;20092;-50
2022/01/23 11:05:03;;;;;;;5.13;1.67;;;8.60;86.10;;;;;;5034544;28;20045;-45
2022/01/23 11:07:38;;;;;;;7.10;1.77;;;8.60;86.30;;;;;;5036158;28;20018;-46
2022/01/23 11:10:10;;;;;;;5.82;2.05;;;8.60;86.00;;;;;;5035669;28;20071;-46
2022/01/23 11:18:02;;;;;;;5.47;1.65;;;8.80;85.80;;;;;;5016501;28;20482;-46
2022/01/23 11:20:49;;;;;;;6.50;1.20;;;8.70;85.70;;;;;;5033183;28;20022;-46
2022/01/23 11:23:22;;;;;;;7.18;2.38;;;8.80;85.70;;;;;;5035608;28;20041;-45
2022/01/23 11:25:57;;;;;;;4.07;2.08;;;8.80;85.40;;;;;;5035759;28;20759;-46
2022/01/23 11:28:44;;;;;;;3.95;1.15;;;8.80;85.30;;;;;;5034710;28;20033;-49
2022/01/23 11:31:17;;;;;;;2.50;1.30;;;8.80;85.00;;;;;;5034716;28;20056;-49
2022/01/23 11:33:48;;;;;;;3.78;1.25;;;8.70;84.80;;;;;;5035285;28;20360;-47
2022/01/23 11:36:15;;;;;;;2.20;0.90;;;8.80;85.00;;;;;;5035400;28;20060;-46
2022/01/23 11:38:44;;;;;;;3.33;0.88;;;8.80;84.30;;;;;;5034227;28;20034;-47
2022/01/23 11:55:06;;;;;;;1.65;0.60;;;8.90;84.00;;;;;;5034282;28;20103;-46
2022/01/23 11:57:44;;;;;;;2.47;0.57;;;9.00;82.70;;;;;;5034793;28;20363;-47
2022/01/23 12:00:17;;;;;;;2.05;0.65;;;9.00;82.10;;;;;;5034989;28;20033;-46
2022/01/23 12:02:44;;;;;;;6.30;1.30;;;9.00;81.10;;;;;;5034873;28;20313;-51
2022/01/23 12:05:17;;;;;;;1.48;0.50;;;9.00;81.10;;;;;;5034071;28;20053;-47
2022/01/23 12:07:45;;;;;;;0.63;0.30;;;9.00;81.50;;;;;;5033750;28;20033;-47
2022/01/23 12:10:28;;;;;;;1.98;0.40;;;8.80;81.10;;;;;;5034481;28;20120;-46
2022/01/23 12:16:31;;;;;;;1.67;0.68;;;8.80;81.00;;;;;;5034782;28;20033;-48
2022/01/23 12:19:19;;;;;;;1.55;0.68;;;8.80;80.90;;;;;;5034710;28;20431;-50
2022/01/23 12:21:46;;;;;;;2.75;0.30;;;8.90;80.80;;;;;;5035067;28;20029;-47
2022/01/23 12:24:16;;;;;;;4.88;0.90;;;8.80;80.20;;;;;;5034182;28;20032;-49
2022/01/23 12:26:46;;;;;;;3.78;1.67;;;8.70;80.70;;;;;;5034616;28;20029;-48
2022/01/23 12:29:17;;;;;;;3.20;0.60;;;8.70;81.40;;;;;;5032472;28;20030;-49
2022/01/23 12:31:43;;;;;;;1.48;0.38;;;8.90;81.60;;;;;;5033586;28;20370;-47
2022/01/23 12:34:12;;;;;;;0.43;0.30;;;9.00;79.80;;;;;;5033680;28;20037;-47
2022/01/23 12:36:40;;;;;;;1.10;0.40;;;9.20;80.10;;;;;;5032141;28;20226;-47
2022/01/23 12:39:08;;;;;;;2.13;0.80;;;9.30;79.50;;;;;;5033234;28;20048;-51
2022/01/23 12:41:52;;;;;;;2.75;0.75;;;9.40;79.40;;;;;;5033769;28;20025;-50
2022/01/23 12:44:23;;;;;;;3.33;1.10;;;9.40;77.40;;;;;;5033437;28;20343;-47
2022/01/23 12:46:52;;;;;;;2.83;1.60;;;9.40;78.10;;;;;;5033051;28;20419;-49
2022/01/23 12:49:22;;;;;;;3.17;1.73;;;9.40;77.60;;;;;;5033429;28;20029;-48
2022/01/23 12:51:49;;;;;;;;;;;9.40;77.70;;;;;;5033832;28;20030;-47
2022/01/23 12:54:25;;;;;;;3.00;1.52;;;9.40;77.80;;;;;;5033294;28;19964;-49
2022/01/23 12:56:51;;;;;;;3.97;2.60;;;9.40;77.70;;;;;;5031873;28;20044;-47
2022/01/23 12:59:27;;;;;;;4.95;1.67;;;9.30;77.40;;;;;;5043535;28;20030;-51
2022/01/23 13:02:00;;;;;;;2.85;1.38;;;9.20;79.00;;;;;;5021968;28;20029;-50
2022/01/23 13:04:34;;;;;;;1.85;0.90;;;9.10;78.40;;;;;;5032962;28;20044;-48
2022/01/23 13:07:10;;;;;;;2.03;1.08;;;8.90;78.70;;;;;;5033024;28;20026;-48
2022/01/23 13:12:10;;;;;;;2.80;1.90;;;8.80;79.40;;;;;;5033788;28;20037;-49
2022/01/23 13:15:44;;;;;;;2.13;1.27;;;8.70;80.00;;;;;;5033176;28;20022;-46
2022/01/23 13:26:39;;;;;;;1.65;0.88;;;8.40;80.80;;;;;;5033151;28;20473;-47
2022/01/23 13:32:03;;;;;;;1.73;0.80;;;8.10;81.00;;;;;;5033439;28;20079;-47
2022/01/23 13:34:34;;;;;;;2.40;1.98;;;8.10;81.30;;;;;;5031785;28;20084;-48
2022/01/23 13:37:11;;;;;;;3.15;1.60;;;8.00;81.90;;;;;;5032851;28;20083;-46
2022/01/23 13:39:51;;;;;;;3.25;1.70;;;8.10;82.20;;;;;;5018878;28;20026;-49
2022/01/23 14:02:18;;;;;;;2.70;1.30;;;7.80;83.40;;;;;;5030216;28;20083;-48
2022/01/23 14:05:07;;;;;;;3.88;1.70;;;7.80;83.40;;;;;;5032398;28;20029;-49
2022/01/23 14:07:33;;;;;;;5.20;3.25;;;7.90;83.30;;;;;;5032363;28;20095;-47
2022/01/23 14:10:13;;;;;;;3.90;2.22;;;7.80;83.10;;;;;;5036055;28;20470;-53
2022/01/23 14:12:39;;;;;;;4.63;2.30;;;7.90;83.10;;;;;;5035983;28;20520;-49
2022/01/23 14:15:13;;;;;;;3.38;1.90;;;7.80;83.00;;;;;;5036697;28;20033;-47
2022/01/23 14:17:39;;;;;;;3.85;1.45;;;7.90;83.00;;;;;;5036436;28;20604;-51
2022/01/23 14:20:14;;;;;;;2.33;1.35;;;7.80;82.80;;;;;;5035975;28;20462;-47
2022/01/23 14:22:42;;;;;;;4.05;1.00;;;7.80;82.60;;;;;;5037188;28;20100;-51
2022/01/23 14:25:17;;;;;;;2.05;0.75;;;7.70;82.70;;;;;;5035293;28;20113;-48
2022/01/23 14:28:00;;;;;;;2.67;1.20;;;7.70;82.80;;;;;;5036708;28;20023;-47
2022/01/23 14:30:28;;;;;;;2.65;1.05;;;7.60;83.00;;;;;;5035235;28;20116;-51
2022/01/23 14:32:55;;;;;;;2.80;1.27;;;7.50;83.10;;;;;;5036341;28;20033;-49
2022/01/23 14:35:28;;;;;;;3.78;1.50;;;7.40;83.10;;;;;;5036375;28;20025;-49
2022/01/23 14:38:14;;;;;;;2.13;1.05;;;7.50;83.00;;;;;;5035987;28;20759;-48
2022/01/23 14:41:10;;;;;;;1.65;0.90;;;7.50;82.90;;;;;;5035593;28;20040;-48
2022/01/23 14:43:39;;;;;;;2.05;1.27;;;7.50;83.20;;;;;;5028690;28;20406;-51
2022/01/23 14:46:07;;;;;;;1.92;1.13;;;7.50;83.30;;;;;;5023458;28;20030;-49
2022/01/23 14:48:38;;;;;;;3.92;0.90;;;7.40;83.20;;;;;;5024714;28;20025;-47
2022/01/23 14:51:06;;;;;;;4.68;1.88;;;7.40;83.30;;;;;;5033391;28;20033;-49
2022/01/23 14:53:37;;;;;;;3.38;1.33;;;7.40;83.30;;;;;;5033121;28;20029;-48
2022/01/23 14:56:07;;;;;;;2.60;1.30;;;7.40;83.50;;;;;;5032895;28;20042;-50
2022/01/23 14:58:34;;;;;;;2.22;1.13;;;7.30;83.40;;;;;;5029526;28;20018;-47
2022/01/23 15:01:02;;;;;;;2.30;1.00;;;7.30;83.50;;;;;;5033708;28;20474;-48
2022/01/23 15:03:30;;;;;;;1.63;0.70;;;7.20;83.40;;;;;;5031205;28;20420;-47
2022/01/23 15:05:56;;;;;;;1.33;0.70;;;7.20;83.50;;;;;;5031016;28;20408;-48
2022/01/23 15:08:24;;;;;;;2.33;1.20;;;7.20;83.70;;;;;;5027251;28;20022;-47
2022/01/23 15:10:53;;;;;;;2.47;1.13;;;7.10;83.70;;;;;;5025271;28;20030;-52
2022/01/23 15:13:22;;;;;;;3.58;1.23;;;7.10;83.80;;;;;;5026828;28;20025;-46
2022/01/23 15:15:49;;;;;;;3.30;1.15;;;7.00;83.90;;;;;;5033227;28;20067;-46
2022/01/23 15:18:14;;;;;;;2.80;1.52;;;6.90;84.10;;;;;;5031480;28;20497;-48
2022/01/23 15:20:40;;;;;;;2.40;1.30;;;6.90;84.30;;;;;;5026548;28;20116;-47
2022/01/23 15:23:07;;;;;;;1.80;0.90;;;6.90;84.50;;;;;;5035279;28;20340;-50
2022/01/23 15:25:33;;;;;;;2.53;1.15;;;6.90;84.70;;;;;;5035640;28;20029;-48
2022/01/23 15:28:07;;;;;;;3.05;1.35;;;6.80;84.80;;;;;;5035821;28;20363;-48
2022/01/23 15:30:33;;;;;;;2.83;1.30;;;6.80;85.10;;;;;;5032019;28;20497;-50
2022/01/23 15:33:01;;;;;;;2.53;1.33;;;6.80;85.10;;;;;;5035439;28;20056;-47
2022/01/23 15:35:27;;;;;;;3.40;1.33;;;6.80;85.20;;;;;;5034244;28;20037;-50
2022/01/23 15:37:54;;;;;;;2.13;1.10;;;6.70;85.20;;;;;;5035533;28;20026;-51
2022/01/23 15:40:21;;;;;;;1.60;1.20;;;6.70;85.40;;;;;;5035128;28;20025;-49
2022/01/23 15:42:50;;;;;;;2.53;1.45;;;6.70;85.50;;;;;;5034703;28;20053;-50
2022/01/23 15:45:19;;;;;;;2.45;1.13;;;6.70;85.40;;;;;;5035230;28;20068;-49
2022/01/23 15:47:45;;;;;;;3.25;1.60;;;6.70;85.20;;;;;;5034280;28;20029;-49
2022/01/23 15:50:14;;;;;;;3.42;1.40;;;6.60;85.50;;;;;;5035345;28;20045;-50
2022/01/23 15:52:41;;;;;;;3.35;2.15;;;6.60;85.60;;;;;;5034453;28;20029;-46
2022/01/23 15:55:08;;;;;;;2.50;1.50;;;6.60;85.10;;;;;;5035173;28;20033;-47
2022/01/23 15:57:34;;;;;;;3.47;1.95;;;6.70;84.90;;;;;;5035417;28;20021;-46
2022/01/23 16:00:00;;;;;;;3.92;1.92;;;6.70;85.10;;;;;;5034832;28;20128;-50
2022/01/23 16:02:26;;;;;;;2.45;1.52;;;6.70;85.00;;;;;;5035040;28;20056;-49
2022/01/23 16:04:54;;;;;;;2.55;1.60;;;6.60;85.10;;;;;;5034146;28;20370;-47
2022/01/23 16:07:20;;;;;;;1.95;1.33;;;6.70;85.00;;;;;;5034477;28;20030;-46
2022/01/23 16:09:46;;;;;;;2.88;1.40;;;6.70;85.10;;;;;;5034682;28;20045;-50
2022/01/23 16:12:13;;;;;;;3.25;1.40;;;6.70;85.10;;;;;;5033857;28;20052;-51
2022/01/23 16:14:38;;;;;;;2.55;1.45;;;6.60;85.00;;;;;;5034428;28;20099;-49
2022/01/23 16:17:05;;;;;;;2.67;1.50;;;6.70;85.00;;;;;;5034574;28;20025;-49
2022/01/23 16:19:31;;;;;;;2.35;1.42;;;6.60;85.10;;;;;;5033954;28;20041;-51
2022/01/23 16:21:56;;;;;;;2.60;1.50;;;6.70;85.30;;;;;;5034872;28;20025;-48
2022/01/23 16:24:23;;;;;;;2.35;1.42;;;6.60;85.20;;;;;;5034396;28;20079;-46
2022/01/23 16:26:54;;;;;;;2.83;1.98;;;6.60;85.40;;;;;;5034794;28;20105;-46
2022/01/23 16:29:21;;;;;;;5.45;1.63;;;6.60;85.40;;;;;;5034304;28;20033;-49
2022/01/23 16:31:48;;;;;;;2.78;1.65;;;6.60;85.50;;;;;;5034597;28;20351;-47
2022/01/23 16:34:13;;;;;;;3.33;2.00;;;6.50;85.50;;;;;;5013685;28;20454;-47
2022/01/23 16:36:41;;;;;;;3.05;1.73;;;6.60;85.50;;;;;;5033794;28;20087;-47
2022/01/23 16:39:09;;;;;;;3.63;2.47;;;6.50;85.60;;;;;;5034235;28;20025;-47
2022/01/23 16:41:37;;;;;;;3.55;2.20;;;6.50;85.60;;;;;;5034013;28;20029;-47